createdAt,value
2022-10-01T00:00:02.746Z,10.40
2022-10-01T00:08:19.867Z,11.23
2022-10-01T00:16:27.807Z,8.77
2022-10-01T00:24:36.754Z,10.15
2022-10-01T00:32:42.189Z,9.77
2022-10-01T00:40:50.294Z,10.85
2022-10-01T00:49:00.001Z,11.80
2022-10-01T00:57:09.878Z,11.07
2022-10-01T01:05:15.894Z,10.18
2022-10-01T01:13:30.057Z,9.98
2022-10-01T01:21:39.813Z,9.38
2022-10-01T01:29:53.188Z,7.72
2022-10-01T01:38:04.554Z,10.20
2022-10-01T01:46:13.957Z,6.20
2022-10-01T01:54:19.537Z,8.63
2022-10-01T02:02:33.360Z,10.10
2022-10-01T02:10:56.296Z,6.88
2022-10-01T02:19:09.015Z,9.00
2022-10-01T02:27:18.660Z,6.00
2022-10-01T02:35:26.842Z,6.47
2022-10-01T02:43:42.615Z,6.07
2022-10-01T02:51:59.377Z,6.15
2022-10-01T03:00:07.668Z,6.68
2022-10-01T03:08:15.622Z,11.80
2022-10-01T03:16:21.015Z,10.55
2022-10-01T03:24:29.096Z,7.38
2022-10-01T03:32:34.877Z,12.18
2022-10-01T03:40:42.944Z,8.75
2022-10-01T03:48:48.366Z,10.02
2022-10-01T03:56:56.285Z,12.23
2022-10-01T04:05:01.580Z,10.73
2022-10-01T04:13:10.002Z,8.90
2022-10-01T04:21:15.858Z,9.80
2022-10-01T04:29:23.861Z,9.85
2022-10-01T04:37:29.549Z,11.90
2022-10-01T04:45:37.464Z,10.50
2022-10-01T04:53:42.845Z,11.25
2022-10-01T05:01:50.728Z,11.07
2022-10-01T05:09:56.064Z,11.05
2022-10-01T05:18:03.976Z,10.82
2022-10-01T05:26:09.544Z,9.10
2022-10-01T05:34:17.448Z,14.38
2022-10-01T05:42:22.690Z,15.23
2022-10-01T05:50:31.797Z,13.98
2022-10-01T05:58:37.558Z,14.52
2022-10-01T06:06:45.535Z,11.30
2022-10-01T06:14:50.885Z,9.02
2022-10-01T06:23:00.067Z,9.43
2022-10-01T06:31:05.993Z,6.53
2022-10-01T06:39:14.137Z,9.40
2022-10-01T06:47:19.394Z,7.95
2022-10-01T06:55:29.727Z,6.88
2022-10-01T07:03:35.071Z,4.95
2022-10-01T07:11:43.362Z,3.85
2022-10-01T07:19:48.627Z,7.00
2022-10-01T07:27:58.621Z,6.95
2022-10-01T07:36:05.097Z,5.80
2022-10-01T07:44:13.491Z,6.55
2022-10-01T07:52:18.802Z,7.00
2022-10-01T08:00:31.141Z,5.40
2022-10-01T08:08:36.688Z,3.47
2022-10-01T08:16:44.778Z,2.75
2022-10-01T08:24:50.131Z,5.47
2022-10-01T08:33:01.436Z,7.90
2022-10-01T08:41:23.198Z,8.57
2022-10-01T08:49:35.374Z,5.23
2022-10-01T08:57:47.151Z,5.95
2022-10-01T09:06:14.583Z,5.53
2022-10-01T09:14:47.681Z,5.30
2022-10-01T09:23:06.237Z,4.63
2022-10-01T09:31:19.486Z,2.22
2022-10-01T09:39:31.096Z,3.33
2022-10-01T09:47:37.042Z,3.83
2022-10-01T09:55:48.776Z,4.57
2022-10-01T10:03:59.186Z,5.78
2022-10-01T10:12:10.613Z,2.30
2022-10-01T10:20:27.820Z,6.40
2022-10-01T10:28:44.710Z,6.60
2022-10-01T10:36:53.396Z,6.60
2022-10-01T10:45:06.973Z,6.90
2022-10-01T10:53:22.760Z,3.78
2022-10-01T11:01:32.654Z,3.28
2022-10-01T11:09:51.213Z,6.32
2022-10-01T11:18:33.001Z,3.72
2022-10-01T11:26:53.240Z,5.05
2022-10-01T11:35:19.907Z,6.38
2022-10-01T11:43:31.802Z,4.70
2022-10-01T11:59:53.635Z,5.57
2022-10-01T12:16:16.196Z,4.30
2022-10-01T12:24:25.387Z,5.95
2022-10-01T12:32:40.599Z,6.55
2022-10-01T12:40:51.492Z,2.97
2022-10-01T12:49:07.879Z,5.38
2022-10-01T12:57:29.031Z,4.63
2022-10-01T13:05:47.534Z,4.10
2022-10-01T13:13:54.229Z,5.28
2022-10-01T13:22:16.400Z,4.13
2022-10-01T13:30:24.621Z,6.25
2022-10-01T13:38:42.911Z,5.60
2022-10-01T13:46:55.166Z,8.73
2022-10-01T13:55:04.354Z,5.57
2022-10-01T14:03:30.195Z,7.03
2022-10-01T14:11:52.911Z,3.25
2022-10-01T14:19:58.308Z,4.57
2022-10-01T14:28:27.474Z,3.50
2022-10-01T14:36:36.491Z,7.53
2022-10-01T14:44:47.278Z,5.88
2022-10-01T14:53:01.690Z,6.05
2022-10-01T15:01:10.380Z,4.32
2022-10-01T15:09:19.650Z,6.43
2022-10-01T15:17:30.676Z,10.70
2022-10-01T15:25:36.240Z,7.25
2022-10-01T15:33:44.698Z,7.18
2022-10-01T15:41:54.979Z,4.43
2022-10-01T15:50:21.030Z,5.25
2022-10-01T15:58:31.846Z,5.72
2022-10-01T16:06:43.486Z,4.60
2022-10-01T16:15:00.635Z,7.70
2022-10-01T16:23:43.883Z,9.77
2022-10-01T16:31:49.580Z,8.00
2022-10-01T16:39:57.499Z,6.78
2022-10-01T16:48:03.837Z,8.30
2022-10-01T16:56:11.937Z,8.80
2022-10-01T17:04:17.287Z,6.55
2022-10-01T17:12:27.098Z,9.48
2022-10-01T17:20:33.941Z,7.43
2022-10-01T17:28:42.171Z,8.40
2022-10-01T17:36:47.437Z,14.05
2022-10-01T17:44:55.428Z,7.07
2022-10-01T17:53:01.549Z,6.78
2022-10-01T18:01:12.324Z,7.03
2022-10-01T18:09:18.001Z,13.98
2022-10-01T18:17:26.025Z,10.98
2022-10-01T18:25:31.314Z,13.70
2022-10-01T18:33:40.142Z,10.95
2022-10-01T18:41:45.685Z,12.52
2022-10-01T18:50:25.870Z,9.65
2022-10-01T18:58:51.930Z,7.97
2022-10-01T19:07:11.508Z,6.38
2022-10-01T19:15:25.095Z,5.10
2022-10-01T19:24:00.072Z,2.05
2022-10-01T19:32:15.478Z,5.53
2022-10-01T19:40:27.012Z,2.28
2022-10-01T19:48:45.056Z,2.42
2022-10-01T19:56:57.992Z,2.15
2022-10-01T20:05:09.582Z,0.98
2022-10-01T20:13:34.059Z,1.55
2022-10-01T20:21:53.104Z,3.75
2022-10-01T20:30:07.059Z,3.63
2022-10-01T20:38:20.020Z,2.85
2022-10-01T20:46:32.690Z,1.73
2022-10-01T20:54:46.708Z,1.55
2022-10-01T21:02:55.819Z,1.45
2022-10-01T21:11:07.956Z,13.27
2022-10-01T21:19:32.519Z,2.20
2022-10-01T21:27:57.145Z,0.85
2022-10-01T21:36:10.188Z,1.92
2022-10-01T21:44:42.508Z,1.42
2022-10-01T21:52:54.974Z,1.20
2022-10-01T22:01:16.020Z,1.50
2022-10-01T22:09:29.329Z,3.10
2022-10-01T22:25:51.547Z,4.10
2022-10-01T22:34:04.482Z,1.73
2022-10-01T22:42:17.121Z,1.73
2022-10-01T22:50:47.491Z,1.53
2022-10-01T22:59:10.097Z,0.80
2022-10-01T23:07:27.346Z,2.70
2022-10-01T23:15:43.659Z,2.83
2022-10-01T23:24:01.174Z,1.50
2022-10-01T23:32:19.262Z,1.20
2022-10-01T23:40:33.797Z,1.95
2022-10-01T23:48:45.412Z,0.73
2022-10-01T23:56:58.225Z,0.70
